Home > Products > Valid Products > TAF

000
FTUS46 KOTX 240542 CCA
TAFEAT
TAF COR
KEAT 240542Z 2406/2506 10008KT P6SM -RA BKN050 OVC060
     FM240800 VRB03KT P6SM -RA BKN020 OVC040
     FM241300 30007KT P6SM -SHRA SCT015 OVC050
     FM241800 30015G25KT P6SM SCT050 BKN090
     FM242100 30024G32KT P6SM SCT080
     FM250100 29012KT P6SM SCT070=



000
FTUS46 KOTX 240538 CCA
TAFPUW
TAF COR
KPUW 240538Z 2406/2506 10010KT P6SM -RA SCT030 OVC040
     FM240800 11012KT P6SM -RA BKN030 OVC050
     FM241200 15013KT P6SM -RA BKN018 OVC030
      TEMPO 2416/2418 4SM RA BR BKN009 OVC015
     FM241800 22018G26KT P6SM -SHRA SCT040 BKN060
     FM250000 24011KT P6SM SCT050 BKN150=



000
FTUS46 KOTX 240538
TAFMWH
TAF
KMWH 240538Z 2406/2506 17009KT P6SM -RA FEW040 OVC060
     FM240800 18014KT P6SM -RA BKN025 OVC040
     FM241100 20015KT P6SM -SHRA SCT040 OVC060
     FM241800 20017G27KT P6SM SCT050 BKN090
     FM250200 24009KT P6SM SCT060=



000
FTUS46 KOTX 240538
TAFSFF
TAF
KSFF 240538Z 2406/2506 11005KT P6SM OVC030
     FM240700 12005KT P6SM -RA SCT020 OVC030
     FM241000 17008KT P6SM -RA BKN018 OVC030
      TEMPO 2415/2418 4SM RA BR BKN010 OVC018
     FM241800 22012G20KT P6SM -SHRA BKN035 BKN050
     FM242100 22013G22KT P6SM -SHRA VCTS SCT050CB BKN080
     FM250200 22008KT P6SM BKN060=



000
FTUS46 KOTX 240538
TAFCOE
TAF

AMD L
 TD TO CLD VIS AND WIND=



000
FTUS46 KOTX 240538
TAFLWS
TAF
KLWS 240538Z 2406/2506 10006KT P6SM -SHRA BKN060 OVC080
     FM241500 23010KT P6SM -RA BKN030 OVC060
     FM241800 30010G19KT P6SM VCSH SCT040 BKN060
     FM242000 29013G22KT P6SM -SHRA SCT060 BKN080
     FM250100 27008KT P6SM BKN080=



000
FTUS46 KOTX 240538
TAFCOE
TAF
KCOE 240538Z 2406/2506 16005KT P6SM BKN025 OVC040
     FM240700 16006KT P6SM -RA BKN025 OVC060
     FM241000 17009KT P6SM -RA BKN015 OVC040
      TEMPO 2415/2418 4SM RA BR BKN009 OVC015
     FM241900 22011G24KT P6SM -SHRA BKN028 BKN050
     FM242200 22012G26KT P6SM -SHRA VCTS SCT050CB BKN080
     FM250200 16005KT P6SM BKN060=



000
FTUS46 KOTX 240538
TAFEAT
TAF
KEAT 240538Z 2406/2506 10008KT P6SM -RA BKN050 OVC060
     FM240800 VRB03KT P6SM -RA OVC020
     FM241300 30007KT P6SM SCT015 OVC120
     FM241800 30015G25KT P6SM VCSH SCT050 BKN090=



000
FTUS46 KOTX 240538
TAFGEG
TAF
KGEG 240538Z 2406/2506 15009KT P6SM BKN028 OVC100
     FM240700 16009KT P6SM -RA BKN025 OVC060
     FM241000 17011KT P6SM -RA BKN015 OVC040
      TEMPO 2415/2418 4SM RA BR BKN009 OVC015
     FM241800 22012G24KT P6SM -SHRA BKN030 BKN050
     FM242100 22018G26KT P6SM -SHRA VCTS SCT050CB BKN080
     FM250200 22008KT P6SM BKN060=



000
FTUS46 KOTX 240538
TAFPUW
TAF
KPUW 240538Z 2406/2506 10010KT P6SM -RA FEW035 OVC040
     FM240800 11012KT P6SM -RA BKN030 OVC050
     FM241200 15013KT P6SM -RA BKN018 OVC030
      TEMPO 2416/2418 4SM RA BR BKN009 OVC015
     FM241800 22018G26KT P6SM -SHRA SCT040 BKN060
     FM250000 24011KT P6SM SCT050 BKN150=



000
FTUS46 KOTX 240413 AAA
TAFPUW
TAF AMD
KPUW 240413Z 2404/2424 10012KT P6SM VCSH SCT030 OVC070
     FM240800 15010KT P6SM -RA BKN030 OVC050
     FM241200 20010KT P6SM -RA BKN012 OVC030
     FM241800 22015G22KT P6SM -SHRA SCT040 BKN060=



000
FTUS46 KOTX 240307 AAA
TAFGEG
TAF AMD
KGEG 240307Z 2403/2424 22010KT P6SM SCT060 BKN070 BKN090
     FM240400 16010KT P6SM -RA BKN025 OVC050
     FM241100 17011KT P6SM -RA BKN015 OVC040
     FM241800 22016G24KT P6SM VCSH SCT030 BKN050
     FM242100 22018G26KT P6SM -SHRA SCT050 BKN080=



000
FTUS46 KOTX 240307 AAA
TAFSFF
TAF AMD
KSFF 240307Z 2403/2424 22008KT P6SM SCT040 BKN080 OVC100
     FM240500 16007KT P6SM -RA BKN030 OVC050
     FM241200 17008KT P6SM -RA BKN018 OVC030
     FM241800 22010G18KT P6SM VCSH SCT030 BKN050
     FM242100 22012G24KT P6SM -SHRA SCT050 BKN080=



000
FTUS46 KOTX 240306 AAA
TAFCOE
TAF AMD
KCOE 240306Z 2403/2424 15005KT P6SM SCT050 SCT100
     FM240600 15005KT P6SM -RA BKN030 OVC050
     FM241000 15007KT P6SM -RA OVC015
     FM241900 22015G24KT P6SM VCSH SCT030 BKN050
     FM242100 22016G25KT P6SM -SHRA SCT050 BKN080
      AMD LTD TO CLD VIS AND WIND=



000
FTUS46 KOTX 232349 CCA
TAFMWH
TAF COR
KMWH 232349Z 2400/2424 19008KT P6SM VCSH SCT030 OVC050
     FM240500 05008KT P6SM -RA SCT025 OVC040
     FM241000 18010KT P6SM -RA BKN025 OVC040
     FM241400 20010KT P6SM SCT040 OVC100
     FM241800 20014G25KT P6SM VCSH SCT050 BKN090=



000
FTUS46 KOTX 232348 CCA
TAFEAT
TAF COR
KEAT 232348Z 2400/2424 26005KT P6SM VCSH SCT050 OVC070
     FM240400 15004KT P6SM -SHRA OVC040
     FM240800 VRB03KT P6SM -RA OVC020
     FM241300 30007KT P6SM SCT015 OVC120
     FM241800 30015G25KT P6SM VCSH SCT050 BKN090=



000
FTUS46 KOTX 232337
TAFLWS
TAF
KLWS 232337Z 2400/2424 28008KT P6SM VCSH SCT050 OVC060
     FM240700 17006KT P6SM -RA SCT030 OVC050
     FM240900 15007KT P6SM -RA BKN030 OVC050
     FM241500 23010KT P6SM -SHRA SCT040 OVC060
     FM241800 30010G19KT P6SM VCSH SCT040 BKN060=



000
FTUS46 KOTX 232337
TAFEAT
TAF
KEAT 232337Z 2400/2424 26015KT P6SM VCSH SCT050 OVC070
     FM240400 15004KT P6SM -SHRA OVC040
     FM240800 VRB03KT P6SM -RA OVC020
     FM241300 30007KT P6SM SCT015 OVC120
     FM241800 30015G25KT P6SM VCSH SCT050 BKN090=



000
FTUS46 KOTX 232337
TAFCOE
TAF
KCOE 232337Z 2400/2424 22012G18KT P6SM VCSH SCT060 SCT100
     FM240600 15005KT P6SM -RA BKN030 OVC050
     FM241000 15007KT P6SM -RA OVC015
     FM241900 22015G24KT P6SM VCSH SCT030 BKN050
     FM242100 22016G25KT P6SM -SHRA SCT050 BKN080
      AMD LTD TO CLD VIS AND WIND=



000
FTUS46 KOTX 232337
TAFPUW
TAF
KPUW 232337Z 2400/2424 24014G24KT P6SM VCSH SCT040 OVC070
     FM240300 16010KT P6SM -SHRA SCT020 OVC030
     FM240800 15010KT P6SM -RA OVC020
     FM241200 20010KT P6SM -RA BKN012 OVC030
     FM241800 22015G22KT P6SM -SHRA SCT040 BKN060=



000
FTUS46 KOTX 232337
TAFMWH
TAF
KMWH 232337Z 2400/2424 22018G21KT P6SM SCT030 OVC050
     FM240500 05008KT P6SM -RA SCT025 OVC040
     FM241000 18010KT P6SM -RA BKN025 OVC040
     FM241400 20010KT P6SM SCT040 OVC100
     FM241800 20014G25KT P6SM VCSH SCT050 BKN090=



000
FTUS46 KOTX 232337
TAFGEG
TAF
KGEG 232337Z 2400/2424 24016G26KT P6SM SCT060 BKN070 BKN090
     FM240400 16010KT P6SM -RA BKN025 OVC050
     FM241100 17011KT P6SM -RA BKN015 OVC040
     FM241800 22016G24KT P6SM VCSH SCT030 BKN050
     FM242100 22018G26KT P6SM -SHRA SCT050 BKN080=



000
FTUS46 KOTX 232337
TAFSFF
TAF
KSFF 232337Z 2400/2424 26010G23KT P6SM SCT060 BKN080 OVC100
     FM240500 16007KT P6SM -RA BKN030 OVC050
     FM241200 17008KT P6SM -RA BKN018 OVC030
     FM241800 22010G18KT P6SM VCSH SCT030 BKN050
     FM242100 22012G24KT P6SM -SHRA SCT050 BKN080=



000
FTUS46 KOTX 232122 AAA
TAFCOE
TAF AMD
KCOE 232122Z 2321/2418 24015G25KT P6SM VCSH SCT025 BKN040
     FM240600 15005KT P6SM -RA BKN030 OVC050
     FM241000 15007KT P6SM -RA OVC015
      AMD LTD TO CLD VIS AND WIND=



000
FTUS46 KOTX 232122 AAB
TAFPUW
TAF AMD
KPUW 232122Z 2321/2418 24015G29KT P6SM SCT025 BKN035
      TEMPO 2322/2324 -SHRA
     FM240000 23014KT P6SM -SHRA BKN030 OVC100
     FM240300 16010KT P6SM -RA SCT020 OVC030
     FM240800 21012KT P6SM -RA OVC020=



000
FTUS46 KOTX 232041 AAA
TAFSFF
TAF AMD
KSFF 232041Z 2321/2418 23016G23KT P6SM VCSH SCT030 BKN080
     FM240500 16007KT P6SM -RA BKN030 OVC050
     FM241200 15004KT P6SM -RA OVC018=



000
FTUS46 KOTX 231841 AAA
TAFPUW
TAF AMD
KPUW 231841Z 2319/2418 24015G29KT P6SM SCT025 BKN035
      TEMPO 2320/2324 -SHRA BKN025 OVC030
     FM240000 23014KT P6SM -SHRA BKN030 OVC100
     FM240300 16010KT P6SM -RA SCT020 OVC030
     FM240800 21012KT P6SM -RA OVC020=



000
FTUS46 KOTX 231729
TAFEAT
TAF
KEAT 231729Z 2318/2418 VRB03KT P6SM SCT070
     FM232000 30010G19KT P6SM VCSH SCT070 BKN120
     FM240400 15004KT P6SM -SHRA OVC040
     FM240800 VRB03KT P6SM -RA OVC020
     FM241300 30007KT P6SM VCSH SCT015 OVC120=



000
FTUS46 KOTX 231729
TAFGEG
TAF
KGEG 231729Z 2318/2418 22018KT P6SM BKN025 BKN080
     FM232000 23019G25KT P6SM SCT030 BKN040
      TEMPO 2321/2401 -SHRA BKN030 BKN040
     FM240400 16010KT P6SM -RA BKN025 OVC050
     FM241100 15008KT P6SM -RA BKN015 OVC040=



000
FTUS46 KOTX 231729
TAFCOE
TAF
KCOE 231729Z 2318/2418 18007KT P6SM OVC015
     FM232000 20010KT P6SM VCSH SCT018 BKN025 OVC050
     FM232200 23013KT P6SM -SHRA BKN025 BKN040
     FM240600 15005KT P6SM -RA BKN030 OVC050
     FM241000 15007KT P6SM -RA OVC015
      AMD LTD TO CLD VIS AND WIND=



000
FTUS46 KOTX 231729
TAFMWH
TAF
KMWH 231729Z 2318/2418 24010KT P6SM SCT080 BKN130
     FM232000 20012G18KT P6SM VCSH BKN060 OVC100
     FM240600 05008KT P6SM -RA SCT025 OVC040
     FM240800 18010KT P6SM -RA BKN025 OVC040
     FM241200 20010KT P6SM VCSH SCT040 OVC100=



000
FTUS46 KOTX 231729
TAFPUW
TAF
KPUW 231729Z 2318/2418 24015G24KT P6SM VCSH BKN015 BKN025
     FM232000 22013G19KT P6SM SCT025 BKN035
      TEMPO 2320/2324 -SHRA BKN025 OVC030
     FM240000 23014KT P6SM -SHRA BKN030 OVC100
     FM240300 16010KT P6SM -RA SCT020 OVC030
     FM240800 21012KT P6SM -RA OVC020=



000
FTUS46 KOTX 231729
TAFSFF
TAF
KSFF 231729Z 2318/2418 22012G22KT P6SM BKN025 OVC080
     FM232200 23016G23KT P6SM VCSH SCT030 BKN080
     FM240500 16007KT P6SM -RA BKN030 OVC050
     FM241200 15004KT P6SM -RA OVC018=



000
FTUS46 KOTX 231729
TAFLWS
TAF
KLWS 231729Z 2318/2418 VRB04KT P6SM VCSH BKN050 BKN080
     FM232200 30012G22KT P6SM -SHRA BKN050 BKN100
     FM240600 17006KT P6SM -RA SCT030 OVC050
     FM240900 15007KT P6SM -RA BKN030 OVC050
     FM241500 23010KT P6SM -SHRA SCT040 OVC060=



000
FTUS46 KOTX 231444 AAB
TAFPUW
TAF AMD
KPUW 231444Z 2315/2412 23009KT P6SM -SHRA BKN015 OVC025
     FM231630 24015G24KT P6SM -SHRA SCT030 BKN050
     FM232200 22013G19KT P6SM VCSH FEW009 SCT040 OVC060
     FM240300 16010KT P6SM -RA SCT020 OVC030=



000
FTUS46 KOTX 231443 AAA
TAFCOE
TAF AMD
KCOE 231443Z 2315/2412 19006KT 5SM -SHRASN BKN012 OVC020
     FM231700 20014G25KT P6SM -SHRA SCT020 BKN040 OVC070
     FM232300 20010KT P6SM VCSH SCT030 OVC050
     FM240600 15005KT P6SM -RA BKN030 OVC050
      AMD LTD TO CLD VIS AND WIND=



000
FTUS46 KOTX 231442 AAA
TAFSFF
TAF AMD
KSFF 231442Z 2315/2412 00000KT P6SM SCT025 BKN060 BKN100
      TEMPO 2315/2317 -SHRA BKN025 OVC040
     FM231700 22012G22KT P6SM -SHRA SCT020 BKN040 OVC080
     FM232200 23016G23KT P6SM VCSH SCT050 BKN080
     FM240500 16007KT P6SM -RA BKN030 OVC050=



000
FTUS46 KOTX 231440 AAA
TAFGEG
TAF AMD
KGEG 231440Z 2315/2412 19008KT P6SM VCSH SCT025 BKN100
     FM231700 22018G25KT P6SM -SHRA SCT020 BKN040 OVC080
     FM232200 23019G25KT P6SM VCSH SCT050 BKN080
     FM240500 16010KT P6SM -RA BKN030 OVC050=



000
FTUS46 KOTX 231303 AAA
TAFPUW
TAF AMD
KPUW 231303Z 2313/2412 23009KT P6SM -SHRASN BKN025 OVC040
     FM231500 24015G24KT P6SM -SHRA SCT030 BKN050
     FM232200 22013G19KT P6SM VCSH FEW009 SCT040 OVC060
     FM240300 16010KT P6SM -RA SCT020 OVC030=



000
FTUS46 KOTX 231139 CCA
TAFCOE
TAF COR
KCOE 231139Z 2312/2412 19004KT P6SM VCSH SCT030 BKN100
      TEMPO 2312/2314 BKN030
     FM231400 19006KT P6SM -SHRASN BKN020 BKN040 OVC050
     FM231700 20014G25KT P6SM -SHRA SCT020 BKN040 OVC070
     FM232300 20010KT P6SM VCSH SCT030 OVC050
     FM240600 15005KT P6SM -RA BKN030 OVC050
      AMD LTD TO CLD VIS AND WIND=



000
FTUS46 KOTX 231131
TAFSFF
TAF
KSFF 231131Z 2312/2412 00000KT P6SM VCSH SCT090 BKN100
     FM231400 20008KT P6SM -SHRASN BKN025 OVC040
     FM231700 22012G22KT P6SM -SHRA SCT020 BKN040 OVC080
     FM232200 23016G23KT P6SM VCSH SCT050 BKN080
     FM240500 16007KT P6SM -RA BKN030 OVC050=



000
FTUS46 KOTX 231131
TAFGEG
TAF
KGEG 231131Z 2312/2412 19008KT P6SM VCSH SCT090 BKN100
     FM231400 22014KT 6SM -SHRASN BR BKN020 OVC040
     FM231700 22018G25KT P6SM -SHRA SCT020 BKN040 OVC080
     FM232200 23019G25KT P6SM VCSH SCT050 BKN080
     FM240500 16010KT P6SM -RA BKN030 OVC050=



000
FTUS46 KOTX 231131
TAFCOE
TAF
KCOE 231131Z 2312/2412 19004KT P6SM VCSH SCT090 BKN100
     FM231400 19006KT P6SM -SHRASN SCT020 BKN040 OVC050
     FM231700 20014G25KT P6SM -SHRA SCT020 BKN040 OVC070
     FM232300 20010KT P6SM VCSH SCT030 OVC050
     FM240600 15005KT P6SM -RA BKN030 OVC050
      AMD LTD TO CLD VIS AND WIND=



000
FTUS46 KOTX 231131
TAFLWS
TAF
KLWS 231131Z 2312/2412 00000KT P6SM VCSH SCT040 BKN080
     FM231400 19006KT P6SM -SHRA BKN035 OVC050
     FM231800 28012G22KT P6SM VCSH SCT050 BKN080
     FM240300 17006KT P6SM -RA SCT030 OVC050=



000
FTUS46 KOTX 231131
TAFPUW
TAF
KPUW 231131Z 2312/2412 17003KT P6SM VCSH SCT040 BKN070
     FM231300 22009KT P6SM -SHSN BKN025 OVC040
     FM231500 24015G24KT P6SM -SHRA SCT030 BKN050
     FM232200 22013G19KT P6SM VCSH FEW009 SCT040 OVC060
     FM240300 16010KT P6SM -RA SCT020 OVC030=



000
FTUS46 KOTX 231131
TAFMWH
TAF
KMWH 231131Z 2312/2412 17006KT P6SM VCSH SCT030 OVC080
     FM231500 20011KT P6SM SCT050 BKN070
     FM231900 21013G20KT P6SM VCSH BKN050
     FM240400 18010KT P6SM -RA SCT025 OVC040
     FM240700 18010KT P6SM -RA BKN025 OVC040=



000
FTUS46 KOTX 231131
TAFEAT
TAF
KEAT 231131Z 2312/2412 VRB03KT P6SM SCT040 OVC070
     FM231900 30010G19KT P6SM SCT070 BKN120
     FM240400 15004KT P6SM -RA OVC040=



000
FTUS46 KOTX 231006 AAA
TAFMWH
TAF AMD
KMWH 231006Z 2310/2406 17006KT P6SM VCSH SCT040 BKN080
     FM231200 18009KT P6SM -SHRA BKN030 OVC050
     FM231400 22013KT P6SM SCT050 BKN070
     FM231700 21013G20KT P6SM VCSH BKN050
     FM240400 18010KT P6SM -RA OVC040=



000
FTUS46 KOTX 230537
TAFMWH
TAF
KMWH 230537Z 2306/2406 26006KT P6SM SCT080
     FM230900 21009KT P6SM VCSH SCT040 BKN060
     FM231000 18009KT P6SM -SHRA BKN030 OVC050
     FM231300 22013KT P6SM SCT050 BKN070
     FM231700 21013G20KT P6SM VCSH BKN050
     FM240400 18010KT P6SM -RA OVC040=



000
FTUS46 KOTX 230537
TAFCOE
TAF
KCOE 230537Z 2306/2406 30003KT P6SM SCT200
     FM231200 19008KT P6SM VCSH BKN060 OVC100
     FM231400 20006KT P6SM -SHSN BKN020 OVC040
     FM231800 20014G25KT P6SM -SHRA SCT020 BKN040 OVC070
     FM232200 20010KT P6SM VCSH SCT030 OVC050
     FM240400 15005KT P6SM -RA BKN030 OVC050
      AMD LTD TO CLD VIS AND WIND=



000
FTUS46 KOTX 230537
TAFLWS
TAF
KLWS 230537Z 2306/2406 27005KT P6SM FEW200
     FM231100 21007KT P6SM VCSH BKN060 BKN100
     FM231400 19006KT P6SM -SHRA BKN035 OVC050
     FM231800 28012G22KT P6SM VCSH SCT050 BKN080
     FM240300 17006KT P6SM -RA SCT030 OVC050=



000
FTUS46 KOTX 230537
TAFEAT
TAF
KEAT 230537Z 2306/2406 VRB05KT P6SM BKN100
     FM230900 34007KT P6SM VCSH SCT040 BKN070
     FM231200 30010KT P6SM SCT070 BKN100
     FM231900 30015G23KT P6SM SCT070 BKN120
     FM240400 15004KT P6SM -RA OVC040=



000
FTUS46 KOTX 230537
TAFPUW
TAF
KPUW 230537Z 2306/2406 23011KT P6SM SCT200
     FM231100 24012KT P6SM VCSH BKN060 BKN100
     FM231300 23014KT P6SM -SHSN BKN025 OVC040
     FM231600 24017G25KT P6SM -SHRA SCT030 BKN050
     FM232200 22010KT P6SM VCSH FEW009 SCT040 OVC060
     FM240300 16010KT P6SM -RA SCT020 OVC030=



000
FTUS46 KOTX 230537
TAFGEG
TAF
KGEG 230537Z 2306/2406 23010KT P6SM SCT200
     FM231200 21013KT P6SM VCSH BKN060 OVC100
     FM231400 22014KT 6SM -SHSN BR BKN020 OVC040
     FM231700 22018G25KT P6SM -SHRA SCT020 BKN040 OVC080
     FM232200 23019G25KT P6SM VCSH SCT050 BKN080
     FM240400 16010KT P6SM -RA BKN030 OVC050=



000
FTUS46 KOTX 230537
TAFSFF
TAF
KSFF 230537Z 2306/2406 VRB05KT P6SM SCT200
     FM231200 21009KT P6SM VCSH BKN070 OVC100
     FM231400 20008KT P6SM -SHRASN BKN025 OVC040
     FM231700 22012G22KT P6SM -SHRA SCT020 BKN040 OVC080
     FM232200 23016G23KT P6SM VCSH SCT050 BKN080
     FM240400 16007KT P6SM -RA BKN030 OVC050=



000
FTUS46 KOTX 230218 AAA
TAFEAT
TAF AMD
KEAT 230218Z 2302/2324 30014KT P6SM SCT120
     FM230900 34007KT P6SM VCSH SCT040 BKN070
     FM231200 30010KT P6SM SCT070 BKN100
     FM231900 20015G25KT P6SM SCT070 BKN120=



000
FTUS46 KOTX 230217 AAA
TAFGEG
TAF AMD
KGEG 230217Z 2302/2324 23011KT P6SM SCT050 SCT090 BKN200
     FM230600 23012KT P6SM FEW060 SCT100 SCT150
     FM231100 21013KT P6SM VCSH BKN060 OVC100
     FM231200 22014KT 6SM -SHSN BR BKN020 OVC040
     FM231500 22018G25KT P6SM -SHRA SCT020 BKN040 OVC080=



000
FTUS46 KOTX 230217 AAA
TAFSFF
TAF AMD
KSFF 230217Z 2302/2324 23007KT P6SM SCT050 BKN090
     FM230600 23008KT P6SM FEW060 SCT100 SCT150
     FM231100 21009KT P6SM VCSH BKN070 OVC100
     FM231200 20010KT P6SM -SHRASN BKN025 OVC040
     FM231500 22018G25KT P6SM -SHRA SCT030 BKN045 OVC080=



000
FTUS46 KOTX 230216 AAA
TAFCOE
TAF AMD
KCOE 230216Z 2302/2324 20009KT P6SM VCSH BKN060
     FM230500 22007KT P6SM SCT060 BKN100
     FM231100 19008KT P6SM VCSH BKN060 OVC100
     FM231300 20006KT P6SM -SHSN BKN020 OVC040
     FM231600 20014G25KT P6SM -SHRA SCT020 BKN040 OVC070
      AMD LTD TO CLD VIS AND WIND=



000
FTUS46 KOTX 222336
TAFLWS
TAF
KLWS 222336Z 2300/2324 28013KT P6SM VCSH SCT040 BKN080
     FM230300 24009KT P6SM SCT050 BKN090
     FM231100 21007KT P6SM BKN060 BKN100
     FM231300 19006KT P6SM -SHRA BKN030 OVC050
     FM231900 28014G22KT P6SM VCSH SCT050 BKN080=



000
FTUS46 KOTX 222336
TAFGEG
TAF
KGEG 222336Z 2300/2324 23018G25KT P6SM VCSH BKN045 BKN200
     FM230300 22015KT P6SM SCT050 BKN100
     FM230600 23012KT P6SM FEW060 SCT100 SCT150
     FM231100 21013KT P6SM VCSH BKN060 OVC100
     FM231200 22014KT 6SM -SHSN BR BKN020 OVC040
     FM231500 22018G25KT P6SM -SHRA SCT020 BKN040 OVC080=



000
FTUS46 KOTX 222336
TAFEAT
TAF
KEAT 222336Z 2300/2324 31018G25KT P6SM FEW050 SCT100
     FM230300 29014KT P6SM SCT120
     FM230900 34007KT P6SM VCSH SCT040 BKN070
     FM231200 30010KT P6SM SCT070 BKN100
     FM231900 20015G25KT P6SM SCT070 BKN120=



000
FTUS46 KOTX 222336
TAFPUW
TAF
KPUW 222336Z 2300/2324 25015KT P6SM VCSH SCT040 BKN060
     FM230300 24014KT P6SM SCT030 BKN050
     FM230500 24011KT P6SM SCT060 SCT120
     FM231000 24012KT P6SM VCSH BKN060 BKN100
     FM231300 23014KT P6SM -SHRASN BKN025 OVC040
     FM231600 24017G25KT P6SM -SHRA SCT030 BKN050=



000
FTUS46 KOTX 222336
TAFMWH
TAF
KMWH 222336Z 2300/2324 24018G23KT P6SM SCT060 BKN080
     FM230300 26014KT P6SM SCT070 SCT100
     FM230900 21009KT P6SM VCSH SCT040 BKN060
     FM231000 18009KT P6SM -SHRA BKN030 OVC050
     FM231300 22013KT P6SM SCT050 BKN070
     FM231700 21013KT P6SM VCSH BKN050=



000
FTUS46 KOTX 222336
TAFCOE
TAF
KCOE 222336Z 2300/2324 23011G18KT P6SM -SHRA SCT030 BKN040
     FM230200 20012KT P6SM VCSH BKN030 BKN050
     FM230500 22007KT P6SM FEW050 BKN100
     FM231100 19008KT P6SM VCSH BKN060 OVC100
     FM231300 20006KT P6SM -SHSN BKN020 OVC040
     FM231600 20014G25KT P6SM -SHRA SCT020 BKN040 OVC070
      AMD LTD TO CLD VIS AND WIND=



000
FTUS46 KOTX 222336
TAFSFF
TAF
KSFF 222336Z 2300/2324 23016G22KT P6SM VCSH SCT035 BKN050
     FM230300 23010KT P6SM SCT040 BKN090
     FM230600 23008KT P6SM FEW060 SCT100 SCT150
     FM231100 21009KT P6SM VCSH BKN070 OVC100
     FM231200 20010KT P6SM -SHRASN BKN025 OVC040
     FM231500 22018G25KT P6SM -SHRA SCT030 BKN045 OVC080=



000
FTUS46 KOTX 222230 AAA
TAFPUW
TAF AMD
KPUW 222230Z 2223/2318 25020G30KT P6SM VCSH SCT025 BKN035
     FM230300 24017KT P6SM SCT030 BKN050
     FM230500 24008KT P6SM SCT060 SCT120
     FM231000 24012KT P6SM VCSH BKN060 BKN100
     FM231300 23014KT P6SM -SHRASN BKN025 OVC040=



000
FTUS46 KOTX 222229 AAA
TAFCOE
TAF AMD
KCOE 222229Z 2222/2318 23014G24KT P6SM VCSH SCT009 BKN035
     FM230100 20012KT P6SM VCSH BKN030 BKN050
     FM230600 22007KT P6SM SCT100 SCT150
     FM231100 19008KT P6SM VCSH BKN070 OVC100
     FM231400 20006KT P6SM -SHRASN BKN020 OVC040
      AMD LTD TO CLD VIS AND WIND=



000
FTUS46 KOTX 222227 AAA
TAFGEG
TAF AMD
KGEG 222227Z 2222/2318 23018G28KT P6SM VCSH BKN025 BKN200
     FM230300 22015KT P6SM BKN050 BKN100
     FM230600 23012KT P6SM SCT100 SCT150
     FM231100 21013KT P6SM VCSH BKN060 OVC100
     FM231400 22014KT 6SM -SHSN BR BKN020 OVC040=



000
FTUS46 KOTX 221728
TAFSFF
TAF
KSFF 221728Z 2218/2318 23009KT P6SM -SHRA OVC015
     FM222100 23016G22KT P6SM VCSH BKN030 OVC040
     FM230300 23010KT P6SM SCT040 BKN090
     FM230600 23006KT P6SM SCT100 SCT150
     FM231100 21007KT P6SM VCSH BKN070 OVC100
     FM231400 20008KT P6SM -SHRASN BKN025 OVC040=



000
FTUS46 KOTX 221728
TAFEAT
TAF
KEAT 221728Z 2218/2318 27014KT P6SM BKN080
     FM222000 30023G36KT P6SM FEW050 SCT100
     FM230300 29014KT P6SM SCT120
     FM230900 34007KT P6SM VCSH SCT040 BKN070
     FM231500 30010KT P6SM SCT070 BKN100=



000
FTUS46 KOTX 221728
TAFGEG
TAF
KGEG 221728Z 2218/2318 21015KT P6SM -RA BKN008 OVC013
     FM222100 23018G28KT P6SM VCSH BKN019 OVC025
     FM230300 22015KT P6SM BKN050 BKN100
     FM230600 23012KT P6SM SCT100 SCT150
     FM231100 21013KT P6SM VCSH BKN060 OVC100
     FM231400 22014KT 6SM -SHSN BR BKN020 OVC040=



000
FTUS46 KOTX 221728
TAFLWS
TAF
KLWS 221728Z 2218/2318 00000KT P6SM -SHRA SCT018 BKN035 OVC050
     FM222000 28018G26KT P6SM VCSH SCT025 BKN040
     FM230300 24012KT P6SM SCT035 BKN070
     FM230600 23008KT P6SM SCT070 SCT100
     FM231100 21007KT P6SM BKN060 BKN100
     FM231400 19006KT P6SM -SHRA OVC030=



000
FTUS46 KOTX 221728
TAFMWH
TAF
KMWH 221728Z 2218/2318 27015KT P6SM VCSH SCT035 BKN045 OVC050
     FM222000 24018G26KT P6SM SCT040 BKN080
     FM230300 26014KT P6SM SCT070 SCT100
     FM230900 21009KT P6SM VCSH SCT040 BKN060
     FM231100 18009KT P6SM -SHRA BKN030 OVC050
     FM231700 21013KT P6SM BKN050=



000
FTUS46 KOTX 221728
TAFCOE
TAF
KCOE 221728Z 2218/2318 23009G16KT P6SM -SHRA SCT012 BKN018 OVC040
     FM222000 23014G24KT P6SM -SHRA SCT009 BKN020
     FM230100 20012KT P6SM VCSH BKN030 BKN050
     FM230600 22007KT P6SM SCT100 SCT150
     FM231100 19008KT P6SM VCSH BKN070 OVC100
     FM231400 20006KT P6SM -SHRASN BKN020 OVC040
      AMD LTD TO CLD VIS AND WIND=



000
FTUS46 KOTX 221728
TAFPUW
TAF
KPUW 221728Z 2218/2318 26010KT P6SM -SHRA SCT012 OVC060
     FM222000 25020G30KT P6SM VCSH BKN025 OVC040
     FM230300 24017KT P6SM SCT030 BKN050
     FM230500 24008KT P6SM SCT060 SCT120
     FM231000 24012KT P6SM VCSH BKN060 BKN100
     FM231300 23014KT P6SM -SHRASN BKN025 OVC040=



000
FTUS46 KOTX 221614 AAB
TAFMWH
TAF AMD
KMWH 221614Z 2216/2312 20014G21KT P6SM VCSH FEW028 SCT060 OVC080
     FM221900 24018G26KT P6SM SCT040 BKN080
     FM230400 26014KT P6SM SCT070 SCT100
     FM230900 21009KT P6SM VCSH SCT040 BKN060=



000
FTUS46 KOTX 221613 AAB
TAFPUW
TAF AMD
KPUW 221613Z 2216/2312 25011KT P6SM VCSH BKN009 BKN013 OVC035
     FM221800 25015G22KT P6SM -SHRA BKN015 OVC025
     FM222000 25020G30KT P6SM VCSH BKN025 OVC040
     FM230300 24017KT P6SM SCT030 BKN050=



000
FTUS46 KOTX 221611 AAA
TAFCOE
TAF AMD
KCOE 221611Z 2216/2312 20012KT P6SM -RA BKN030 OVC040
     FM221900 23014G24KT P6SM -RA SCT009 BKN020
     FM230200 20012KT P6SM VCSH SCT030 BKN050
      AMD LTD TO CLD VIS AND WIND=



000
FTUS46 KOTX 221610 AAC
TAFSFF
TAF AMD
KSFF 221610Z 2216/2312 23010KT P6SM -RA BKN014 BKN025 OVC030
     FM221800 21011G15KT P6SM -RA SCT015 OVC030
     FM222100 23016G22KT P6SM VCSH BKN030 OVC040
     FM230300 23010KT P6SM SCT040 BKN090=



000
FTUS46 KOTX 221609 AAC
TAFGEG
TAF AMD
KGEG 221609Z 2216/2312 21015KT 5SM -RA BR BKN008 BKN013 OVC035
     FM221800 22016G20KT 6SM -RA SCT008 BKN011 OVC025
     FM222100 23018G28KT P6SM VCSH SCT025 BKN040
     FM230300 22015KT P6SM SCT050 BKN100=



000
FTUS46 KOTX 221418 AAB
TAFSFF
TAF AMD
KSFF 221418Z 2214/2312 21006KT P6SM -RA BKN014 OVC060
     FM221600 21008G15KT P6SM -RA SCT015 OVC030
     FM221700 23016G22KT P6SM -RA SCT010 BKN020 OVC030
     FM230300 23010KT P6SM SCT040 BKN090=



000
FTUS46 KOTX 221417 AAB
TAFGEG
TAF AMD
KGEG 221417Z 2214/2312 23013KT P6SM -RA BKN009 BKN030 OVC120
     FM221500 22016G24KT 6SM -RA SCT008 BKN011 OVC025
     FM222100 23018G28KT P6SM VCSH SCT025 BKN040
     FM230300 22015KT P6SM SCT050 BKN100=



000
FTUS46 KOTX 221341 AAA
TAFMWH
TAF AMD
KMWH 221341Z 2214/2312 19006KT P6SM -RA SCT015 BKN030 OVC060
     FM221700 24018G26KT P6SM SCT040 BKN080
     FM230400 26014KT P6SM SCT070 SCT100
     FM230900 21009KT P6SM VCSH SCT040 BKN060=



000
FTUS46 KOTX 221339 AAA
TAFPUW
TAF AMD
KPUW 221339Z 2214/2312 25011KT P6SM -RA SCT008 OVC015
      TEMPO 2214/2215 BKN008
     FM221500 23014KT P6SM -RA BKN015 OVC025
     FM221700 25015G22KT P6SM -RA BKN015 OVC025
     FM222000 25020G30KT P6SM -SHRA BKN025 OVC040
     FM230300 24017KT P6SM VCSH SCT030 BKN050=



000
FTUS46 KOTX 221337 AAA
TAFSFF
TAF AMD
KSFF 221337Z 2214/2312 20007KT P6SM -RA SCT020 OVC050
     FM221500 21008G15KT P6SM -RA SCT015 OVC030
     FM221700 23016G22KT P6SM -RA SCT010 BKN020 OVC030
     FM230300 23010KT P6SM SCT040 BKN090=



000
FTUS46 KOTX 221336 AAA
TAFGEG
TAF AMD
KGEG 221336Z 2214/2312 22010G15KT P6SM -RA SCT025 OVC050
     FM221500 22016G24KT 6SM -RA SCT008 BKN011 OVC025
     FM222100 23018G28KT P6SM VCSH SCT025 BKN040
     FM230300 22015KT P6SM SCT050 BKN100=



000
FTUS46 KOTX 221130
TAFLWS
TAF
KLWS 221130Z 2212/2312 32011KT P6SM VCSH SCT030 BKN050 OVC090
     FM221400 25007KT P6SM -RA SCT030 OVC040
     FM221800 28016G22KT P6SM -RA BKN025 OVC035
     FM222000 28018G26KT P6SM -SHRA SCT025 BKN035
     FM230300 24012KT P6SM VCSH SCT035 BKN070=



000
FTUS46 KOTX 221130
TAFSFF
TAF
KSFF 221130Z 2212/2312 20007KT P6SM VCSH BKN060 OVC080
     FM221300 21008G15KT P6SM -RA SCT015 OVC030
     FM221500 23016G22KT P6SM -RA SCT010 BKN020 OVC030
     FM230300 23010KT P6SM SCT040 BKN090=



000
FTUS46 KOTX 221130
TAFEAT
TAF
KEAT 221130Z 2212/2312 11009KT P6SM -RA FEW040 SCT050 OVC070
      TEMPO 2212/2215 BKN020 OVC035
     FM221500 30013KT P6SM VCSH SCT030 BKN050 OVC100
     FM221700 30018G24KT P6SM SCT040 BKN080
     FM222100 30023G36KT P6SM FEW050 SCT100
     FM230300 29014KT P6SM SCT120
     FM230900 34007KT P6SM VCSH SCT040 BKN070=



000
FTUS46 KOTX 221130
TAFMWH
TAF
KMWH 221130Z 2212/2312 19006KT P6SM -RA BKN045 OVC060
     FM221400 23012KT P6SM -RA OVC035
     FM221700 24018G26KT P6SM SCT040 BKN080
     FM230400 26014KT P6SM SCT070 SCT100
     FM230900 21009KT P6SM VCSH SCT040 BKN060=



000
FTUS46 KOTX 221130
TAFCOE
TAF
KCOE 221130Z 2212/2312 14007KT P6SM VCSH OVC080
     FM221400 16007KT P6SM -RA SCT010 OVC025
     FM221600 22013G22KT 6SM -RA BKN011 OVC020
     FM221900 23014G24KT P6SM -RA SCT009 BKN020
     FM230400 20012KT P6SM VCSH SCT030 BKN050
      AMD LTD TO CLD VIS AND WIND=



000
FTUS46 KOTX 221130
TAFPUW
TAF
KPUW 221130Z 2212/2312 25016G23KT P6SM VCSH SCT008 OVC015
      TEMPO 2212/2215 BKN008
     FM221500 23014KT P6SM -RA SCT015 OVC025
     FM221700 25015G22KT P6SM -RA BKN015 OVC025
     FM222000 25020G30KT P6SM -SHRA BKN025 OVC040
     FM230300 24017KT P6SM VCSH SCT030 BKN050=



000
FTUS46 KOTX 221130
TAFGEG
TAF
KGEG 221130Z 2212/2312 18008KT P6SM VCSH BKN060 OVC090
     FM221300 18010G16KT P6SM -RA SCT015 OVC025
     FM221500 22016G24KT 6SM -RA SCT008 BKN011 OVC025
     FM222100 23018G28KT P6SM VCSH SCT025 BKN040
     FM230300 22015KT P6SM SCT050 BKN100=



000
FTUS46 KOTX 221005 AAA
TAFPUW
TAF AMD
KPUW 221005Z 2210/2306 25011G15KT P6SM OVC100
     FM221200 23011KT P6SM VCSH OVC050
     FM221400 23014KT P6SM -RA OVC025
     FM221700 25015G22KT P6SM -RA BKN015 OVC025
     FM222000 25020G30KT P6SM -SHRA BKN025 OVC040
     FM230300 24014KT P6SM VCSH SCT030 BKN050=



000
FTUS46 KOTX 221004 AAA
TAFEAT
TAF AMD
KEAT 221004Z 2210/2306 11010KT P6SM -RA BKN035 OVC050
      TEMPO 2210/2213 BKN020 OVC035
     FM221300 30013KT P6SM VCSH SCT030 BKN050 OVC100
     FM221700 30018G24KT P6SM SCT040 BKN080
     FM222000 30024G34KT P6SM FEW050 SCT100
     FM230300 29014KT P6SM SCT120=



000
FTUS46 KOTX 220525
TAFPUW
TAF
KPUW 220525Z 2206/2306 11008KT P6SM OVC100
     FM221200 23008KT P6SM VCSH OVC050
     FM221500 23014KT P6SM -RA OVC025
     FM221700 25015G22KT P6SM -RA BKN015 OVC025
     FM222000 25020G30KT P6SM -SHRA BKN025 OVC040
     FM230300 24014KT P6SM VCSH SCT030 BKN050=



000
FTUS46 KOTX 220525
TAFCOE
TAF
KCOE 220525Z 2206/2306 04011KT P6SM OVC100
     FM221200 08009KT P6SM VCSH OVC050
     FM221400 16007KT P6SM -RA OVC025
     FM221900 22016G22KT 6SM -RA BKN015 OVC025
     FM230400 20012KT P6SM VCSH SCT030 BKN050
      AMD LTD TO CLD VIS AND WIND=



000
FTUS46 KOTX 220525
TAFGEG
TAF
KGEG 220525Z 2206/2306 12006KT P6SM SCT070 OVC100
     FM221200 18007KT P6SM VCSH BKN040 OVC070
     FM221500 18011KT P6SM -RA SCT015 OVC025
     FM221800 22016G24KT 6SM -RA BKN015 OVC025
     FM222100 23018G28KT P6SM VCSH SCT025 BKN040
     FM230300 22013KT P6SM SCT050 BKN100=



000
FTUS46 KOTX 220525
TAFLWS
TAF
KLWS 220525Z 2206/2306 14005KT P6SM OVC090
     FM221200 23005KT P6SM VCSH OVC080
     FM221400 25007KT P6SM -RA OVC040
     FM221800 28016G22KT P6SM -RA BKN025 OVC035
     FM222000 28018G26KT P6SM -SHRA SCT025 BKN035
     FM230300 25012KT P6SM VCSH SCT035 BKN070=



000
FTUS46 KOTX 220525
TAFEAT
TAF
KEAT 220525Z 2206/2306 30008KT P6SM -RA BKN035 OVC050
     FM220800 32007KT 5SM -RA BKN025 OVC035
     FM221500 30013KT P6SM VCSH SCT030 BKN050 OVC100
     FM221700 30018G24KT P6SM SCT040 BKN080
     FM222000 30024G34KT P6SM FEW050 SCT100
     FM230300 29014KT P6SM SCT120=



000
FTUS46 KOTX 220525
TAFSFF
TAF
KSFF 220525Z 2206/2306 06003KT P6SM OVC100
     FM221200 19005KT P6SM VCSH OVC050
     FM221500 21008KT P6SM -RA OVC030
     FM221800 23016G22KT P6SM -RA SCT020 BKN030
     FM230300 23010KT P6SM SCT040 BKN090=



000
FTUS46 KOTX 220525
TAFMWH
TAF
KMWH 220525Z 2206/2306 26004KT P6SM -RA OVC050
     FM221400 23012KT P6SM -RA OVC035
     FM221700 24018G26KT P6SM SCT040 BKN080
     FM230300 26014KT P6SM SCT070 SCT100=



000
FTUS46 KOTX 212325
TAFSFF
TAF
KSFF 212325Z 2200/2224 06003KT P6SM OVC100
     FM221200 19005KT P6SM VCSH OVC050
     FM221500 21008KT P6SM -RA OVC030
     FM222100 23012G18KT P6SM -RA SCT020 BKN030=



000
FTUS46 KOTX 212325
TAFCOE
TAF
KCOE 212325Z 2200/2224 04010KT P6SM OVC100
     FM220900 08011KT P6SM OVC100
     FM221200 17009KT P6SM VCSH OVC050
     FM221400 16007KT P6SM -RA OVC025
     FM221900 22016G22KT 6SM -RA BKN015 OVC025
      AMD LTD TO CLD VIS AND WIND=



000
FTUS46 KOTX 212325
TAFPUW
TAF
KPUW 212325Z 2200/2224 15008KT P6SM OVC100
     FM221200 23008KT P6SM VCSH OVC050
     FM221500 23010KT P6SM -RA OVC025
     FM221800 25015G22KT P6SM -RA BKN015 OVC025
     FM222300 25018G26KT P6SM -SHRA SCT025 BKN040=



000
FTUS46 KOTX 212325
TAFEAT
TAF
KEAT 212325Z 2200/2224 13004KT P6SM OVC100
     FM220100 24005KT P6SM VCSH SCT050 BKN080 OVC100
     FM220400 30010KT P6SM -SHRA BKN035 OVC050
     FM221500 30013KT P6SM VCSH SCT030 BKN050 OVC100
     FM221700 30018G24KT P6SM SCT040 BKN080
     FM222000 30024G32KT P6SM FEW050 SCT100=



000
FTUS46 KOTX 212325
TAFMWH
TAF
KMWH 212325Z 2200/2224 VRB04KT P6SM BKN100 OVC150
     FM220500 30006KT P6SM SCT060 OVC100
     FM220800 26004KT P6SM VCSH OVC060
     FM221300 20007KT P6SM -RA OVC050
     FM221600 23014KT P6SM -RA OVC035
     FM221900 24018G26KT P6SM SCT040 BKN080=



000
FTUS46 KOTX 212325
TAFGEG
TAF
KGEG 212325Z 2200/2224 06007KT P6SM SCT070 BKN100 OVC200
     FM220400 15006KT P6SM SCT050 OVC120
     FM221200 18007KT P6SM VCSH BKN040 OVC070
     FM221500 18011KT P6SM -RA SCT015 OVC025
     FM221900 22016G24KT 6SM -RA BKN015 OVC025
     FM222300 23018G26KT P6SM VCSH SCT025 BKN040=



000
FTUS46 KOTX 212325
TAFLWS
TAF
KLWS 212325Z 2200/2224 08005KT P6SM BKN100
     FM220400 14005KT P6SM OVC090
     FM221200 23009KT P6SM VCSH OVC080
     FM221600 25004KT P6SM -SHRA OVC040
     FM222000 28018G24KT P6SM -SHRA SCT025 BKN035=



000
FTUS46 KOTX 211727
TAFSFF
TAF
KSFF 211727Z 2118/2218 04003KT P6SM SCT070 BKN120 OVC200
     FM220000 06003KT P6SM OVC100
     FM221100 19003KT P6SM OVC050 PROB30 2211/2214 P6SM -RA OVC050
     FM221400 21005KT P6SM -RA OVC030=



000
FTUS46 KOTX 211727
TAFMWH
TAF
KMWH 211727Z 2118/2218 07015KT P6SM SCT150 OVC200
     FM220500 VRB05KT P6SM OVC100
     FM220900 29004KT P6SM VCSH OVC060
     FM221300 20007KT P6SM -RA OVC050
     FM221600 22010KT P6SM -RA OVC035=



000
FTUS46 KOTX 211727
TAFGEG
TAF
KGEG 211727Z 2118/2218 06007KT P6SM SCT070 BKN100 OVC200
     FM220400 15006KT P6SM SCT050 OVC120
     FM221200 18007KT P6SM VCSH BKN040 OVC070
     FM221500 18008KT P6SM -RA SCT015 OVC025=



000
FTUS46 KOTX 211727
TAFLWS
TAF
KLWS 211727Z 2118/2218 08009KT P6SM SCT100 OVC200
     FM220400 14005KT P6SM BKN120 OVC150
     FM221200 16009KT P6SM VCSH OVC080
     FM221600 25004KT P6SM -SHRA OVC040=



000
FTUS46 KOTX 211727
TAFCOE
TAF
KCOE 211727Z 2118/2218 03013KT P6SM BKN100 OVC200
     FM220000 04010KT P6SM OVC100
     FM220700 18007KT P6SM OVC100
     FM221200 17009KT P6SM VCSH OVC050
     FM221400 16006KT P6SM -RA OVC025
      AMD LTD TO CLD VIS AND WIND=



000
FTUS46 KOTX 211727
TAFPUW
TAF
KPUW 211727Z 2118/2218 11015G22KT P6SM SCT070 BKN120 OVC250
     FM220100 08004KT P6SM OVC100
     FM221200 23006KT P6SM OVC050 PROB30 2212/2215 -SHRA OVC025
     FM221500 23008KT P6SM -RA OVC025=



000
FTUS46 KOTX 211727
TAFEAT
TAF
KEAT 211727Z 2118/2218 29005KT P6SM BKN090 OVC120
     FM212000 13006KT P6SM VCSH SCT050 BKN080 OVC100
     FM220500 32006KT P6SM -SHRA BKN035 OVC050
     FM220900 32006KT P6SM -RA BKN025 OVC040
     FM221600 30015KT P6SM -SHRA SCT030 BKN050 OVC100=



000
FTUS46 KOTX 211132
TAFSFF
TAF
KSFF 211132Z 2112/2212 05005KT P6SM SCT080 BKN120 OVC150=



000
FTUS46 KOTX 211132
TAFMWH
TAF
KMWH 211132Z 2112/2212 01008KT P6SM BKN100 OVC150
     FM211800 07008KT P6SM SCT080 BKN100 OVC120
     FM220900 28005KT P6SM VCSH BKN050 OVC080=



000
FTUS46 KOTX 211132
TAFCOE
TAF
KCOE 211132Z 2112/2212 05008KT P6SM SCT080 BKN120 OVC150
      AMD LTD TO CLD VIS AND WIND=



000
FTUS46 KOTX 211132
TAFPUW
TAF
KPUW 211132Z 2112/2212 10012KT P6SM SCT100 OVC150
     FM212100 06005KT P6SM BKN100 OVC150
     FM220800 10006KT P6SM BKN100 OVC150=



000
FTUS46 KOTX 211132
TAFEAT
TAF
KEAT 211132Z 2112/2212 29005KT P6SM BKN090 OVC120
     FM211900 13006KT P6SM VCSH SCT050 BKN080 OVC100
     FM220500 32006KT P6SM -SHRA BKN035 OVC050
     FM220900 32006KT P6SM -RA BKN025 OVC040=



000
FTUS46 KOTX 211132
TAFLWS
TAF
KLWS 211132Z 2112/2212 08006KT P6SM SCT120 OVC150
     FM211900 31005KT P6SM BKN120 OVC150
     FM220400 12006KT P6SM BKN120 OVC150=



000
FTUS46 KOTX 211132
TAFGEG
TAF
KGEG 211132Z 2112/2212 05007KT P6SM SCT080 BKN120 OVC150
     FM220800 10007KT P6SM SCT070 BKN100 OVC120=



    US Dept of Commerce
    National Oceanic and Atmospheric Administration
    National Weather Service
    1325 East West Highway
    Silver Spring, MD 20910
    Page Author: NWS Internet Services Team
Disclaimer
Information Quality
Credits
Glossary
Privacy Policy
Freedom of Information Act (FOIA)
About Us
Career Opportunities